createdAt,value
2019-05-01T00:01:44.737Z,17.67
2019-05-01T00:04:23.210Z,13.20
2019-05-01T00:06:56.540Z,15.40
2019-05-01T00:09:27.470Z,15.17
2019-05-01T00:12:01.236Z,16.70
2019-05-01T00:14:33.291Z,14.23
2019-05-01T00:17:16.305Z,16.30
2019-05-01T00:19:46.260Z,16.57
2019-05-01T00:22:20.560Z,15.30
2019-05-01T00:24:51.389Z,12.80
2019-05-01T00:27:22.991Z,14.10
2019-05-01T00:29:55.108Z,15.93
2019-05-01T00:32:29.867Z,14.17
2019-05-01T00:34:59.543Z,14.83
2019-05-01T00:37:28.704Z,14.57
2019-05-01T00:39:57.410Z,19.60
2019-05-01T00:42:26.033Z,14.03
2019-05-01T00:44:54.659Z,14.40
2019-05-01T00:47:23.298Z,13.60
2019-05-01T00:49:52.050Z,19.17
2019-05-01T00:52:20.751Z,16.00
2019-05-01T00:54:51.169Z,15.60
2019-05-01T00:57:29.193Z,14.47
2019-05-01T01:00:07.092Z,15.67
2019-05-01T01:02:41.708Z,16.63
2019-05-01T01:05:10.385Z,15.80
2019-05-01T01:07:39.026Z,18.27
2019-05-01T01:10:08.656Z,17.90
2019-05-01T01:12:37.277Z,16.10
2019-05-01T01:15:06.660Z,16.50
2019-05-01T01:17:35.276Z,18.20
2019-05-01T01:20:04.094Z,15.33
2019-05-01T01:22:32.751Z,14.63
2019-05-01T01:25:01.995Z,18.97
2019-05-01T01:27:30.809Z,20.50
2019-05-01T01:29:59.478Z,19.53
2019-05-01T01:32:28.092Z,16.50
2019-05-01T01:34:56.818Z,20.47
2019-05-01T01:37:25.667Z,18.42
2019-05-01T01:39:54.330Z,18.40
2019-05-01T01:42:23.391Z,16.60
2019-05-01T01:45:13.814Z,17.03
2019-05-01T01:48:00.140Z,17.83
2019-05-01T01:50:29.040Z,16.70
2019-05-01T01:52:57.777Z,16.70
2019-05-01T01:55:26.504Z,17.50
2019-05-01T01:57:55.713Z,16.23
2019-05-01T02:00:28.069Z,17.27
2019-05-01T02:02:59.544Z,16.90
2019-05-01T02:05:31.957Z,16.40
2019-05-01T02:08:00.656Z,18.87
2019-05-01T02:10:42.296Z,19.70
2019-05-01T02:12:59.964Z,19.43
2019-05-01T02:15:28.668Z,18.13
2019-05-01T02:17:57.294Z,17.00
2019-05-01T02:20:26.011Z,21.33
2019-05-01T02:22:54.654Z,20.93
2019-05-01T02:25:23.596Z,24.60
2019-05-01T02:28:12.219Z,21.43
2019-05-01T02:30:44.370Z,21.07
2019-05-01T02:33:13.057Z,21.10
2019-05-01T02:35:43.259Z,20.97
2019-05-01T02:38:13.565Z,20.20
2019-05-01T02:40:54.227Z,18.47
2019-05-01T02:43:24.436Z,23.93
2019-05-01T02:45:56.595Z,19.50
2019-05-01T02:48:26.494Z,19.97
2019-05-01T02:50:58.379Z,21.77
2019-05-01T02:53:28.056Z,19.93
2019-05-01T02:56:18.957Z,19.17
2019-05-01T02:58:49.178Z,18.63
2019-05-01T03:01:17.873Z,19.80
2019-05-01T03:03:47.164Z,21.33
2019-05-01T03:06:16.291Z,19.98
2019-05-01T03:08:45.205Z,23.67
2019-05-01T03:11:13.931Z,20.10
2019-05-01T03:13:43.896Z,16.77
2019-05-01T03:16:12.758Z,19.17
2019-05-01T03:18:46.361Z,22.03
2019-05-01T03:21:28.701Z,24.43
2019-05-01T03:24:09.904Z,19.90
2019-05-01T03:26:38.606Z,19.27
2019-05-01T03:29:08.210Z,20.90
2019-05-01T03:31:36.951Z,20.53
2019-05-01T03:34:05.675Z,19.60
2019-05-01T03:36:34.381Z,22.70
2019-05-01T03:39:05.145Z,20.50
2019-05-01T03:41:33.850Z,24.83
2019-05-01T03:44:02.874Z,23.23
2019-05-01T03:46:31.881Z,20.23
2019-05-01T03:49:00.591Z,21.10
2019-05-01T03:51:29.503Z,21.57
2019-05-01T03:53:58.544Z,19.90
2019-05-01T03:56:28.195Z,25.17
2019-05-01T03:58:57.085Z,19.90
2019-05-01T04:01:32.698Z,18.83
2019-05-01T04:04:04.837Z,22.20
2019-05-01T04:06:33.691Z,24.03
2019-05-01T04:09:02.393Z,23.12
2019-05-01T04:11:31.012Z,24.35
2019-05-01T04:13:59.714Z,25.95
2019-05-01T04:16:29.019Z,25.57
2019-05-01T04:18:57.831Z,24.10
2019-05-01T04:21:30.265Z,24.95
2019-05-01T04:23:58.978Z,32.35
2019-05-01T04:26:28.081Z,26.02
2019-05-01T04:29:30.867Z,25.02
2019-05-01T04:32:03.297Z,19.82
2019-05-01T04:34:44.427Z,22.52
2019-05-01T04:37:14.182Z,19.95
2019-05-01T04:39:42.873Z,24.82
2019-05-01T04:42:11.574Z,22.67
2019-05-01T04:44:40.269Z,24.63
2019-05-01T04:47:08.964Z,22.37
2019-05-01T04:49:37.666Z,24.32
2019-05-01T04:52:06.555Z,20.27
2019-05-01T04:54:35.221Z,25.00
2019-05-01T04:57:03.976Z,20.27
2019-05-01T04:59:32.724Z,24.40
2019-05-01T05:02:03.438Z,25.90
2019-05-01T05:04:32.450Z,23.52
2019-05-01T05:07:02.060Z,20.30
2019-05-01T05:09:47.352Z,22.52
2019-05-01T05:12:22.877Z,22.55
2019-05-01T05:14:55.981Z,21.93
2019-05-01T05:17:24.703Z,24.05
2019-05-01T05:19:53.633Z,21.47
2019-05-01T05:22:22.313Z,21.20
2019-05-01T05:24:51.228Z,23.90
2019-05-01T05:27:20.249Z,25.27
2019-05-01T05:29:49.603Z,22.90
2019-05-01T05:32:19.768Z,22.07
2019-05-01T05:34:48.793Z,22.20
2019-05-01T05:37:23.694Z,21.63
2019-05-01T05:39:53.145Z,22.50
2019-05-01T05:42:22.286Z,21.33
2019-05-01T05:44:51.155Z,19.60
2019-05-01T05:47:19.879Z,25.27
2019-05-01T05:49:48.686Z,23.52
2019-05-01T05:52:23.005Z,23.47
2019-05-01T05:55:02.230Z,22.30
2019-05-01T05:57:57.732Z,23.27
2019-05-01T06:00:45.401Z,30.63
2019-05-01T06:03:38.032Z,33.27
2019-05-01T06:06:19.306Z,27.30
2019-05-01T06:08:52.040Z,25.40
2019-05-01T06:11:38.937Z,22.13
2019-05-01T06:14:34.699Z,26.47
2019-05-01T06:17:12.114Z,27.10
2019-05-01T06:20:05.153Z,25.40
2019-05-01T06:23:15.723Z,23.87
2019-05-01T06:25:46.047Z,21.60
2019-05-01T06:28:19.892Z,26.97
2019-05-01T06:30:54.389Z,26.63
2019-05-01T06:33:23.344Z,23.33
2019-05-01T06:36:14.591Z,24.63
2019-05-01T06:38:45.494Z,23.63
2019-05-01T06:41:17.372Z,23.00
2019-05-01T06:44:02.179Z,24.53
2019-05-01T06:47:03.154Z,22.20
2019-05-01T06:50:01.194Z,23.53
2019-05-01T06:52:32.280Z,25.60
2019-05-01T06:55:01.485Z,24.50
2019-05-01T06:57:38.483Z,25.00
2019-05-01T07:00:12.016Z,24.40
2019-05-01T07:02:42.956Z,23.17
2019-05-01T07:05:14.695Z,25.47
2019-05-01T07:07:47.978Z,23.67
2019-05-01T07:10:30.714Z,23.97
2019-05-01T07:12:52.648Z,23.70
2019-05-01T07:15:26.860Z,22.77
2019-05-01T07:17:55.971Z,25.83
2019-05-01T07:20:51.389Z,23.80
2019-05-01T07:23:28.017Z,27.73
2019-05-01T07:25:56.914Z,26.53
2019-05-01T07:28:53.364Z,29.27
2019-05-01T07:31:25.915Z,27.30
2019-05-01T07:33:57.334Z,25.97
2019-05-01T07:36:27.942Z,28.30
2019-05-01T07:38:58.024Z,23.67
2019-05-01T07:41:39.370Z,27.27
2019-05-01T07:44:18.028Z,23.33
2019-05-01T07:47:09.554Z,24.73
2019-05-01T07:49:53.151Z,29.83
2019-05-01T07:52:22.928Z,27.27
2019-05-01T07:54:52.489Z,25.77
2019-05-01T07:57:23.033Z,27.17
2019-05-01T07:59:51.616Z,26.00
2019-05-01T08:02:20.328Z,25.57
2019-05-01T08:04:49.084Z,26.27
2019-05-01T08:07:17.847Z,24.17
2019-05-01T08:09:50.349Z,22.83
2019-05-01T08:12:18.865Z,24.63
2019-05-01T08:14:47.771Z,26.30
2019-05-01T08:17:19.886Z,24.47
2019-05-01T08:19:53.891Z,25.23
2019-05-01T08:22:25.271Z,23.70
2019-05-01T08:24:58.560Z,28.10
2019-05-01T08:27:51.077Z,25.73
2019-05-01T08:30:53.063Z,27.63
2019-05-01T08:33:49.872Z,24.50
2019-05-01T08:36:17.822Z,26.30
2019-05-01T08:38:46.468Z,25.17
2019-05-01T08:41:15.092Z,25.43
2019-05-01T08:43:43.908Z,24.90
2019-05-01T08:46:30.086Z,24.00
2019-05-01T08:49:32.382Z,25.53
2019-05-01T08:52:04.713Z,26.17
2019-05-01T08:54:33.649Z,23.63
2019-05-01T08:57:01.889Z,24.43
2019-05-01T08:59:30.517Z,23.63
2019-05-01T09:02:08.930Z,22.13
2019-05-01T09:04:32.406Z,27.07
2019-05-01T09:07:01.074Z,27.30
2019-05-01T09:09:29.841Z,27.20
2019-05-01T09:11:58.441Z,28.97
2019-05-01T09:14:29.794Z,27.10
2019-05-01T09:16:57.391Z,27.63
2019-05-01T09:19:26.038Z,29.10
2019-05-01T09:21:54.647Z,27.97
2019-05-01T09:24:27.875Z,29.03
2019-05-01T09:27:18.519Z,26.27
2019-05-01T09:29:51.661Z,28.20
2019-05-01T09:32:18.926Z,29.57
2019-05-01T09:34:47.647Z,28.97
2019-05-01T09:37:16.467Z,30.50
2019-05-01T09:39:47.394Z,27.13
2019-05-01T09:42:22.726Z,25.40
2019-05-01T09:44:46.226Z,26.73
2019-05-01T09:47:14.983Z,25.87
2019-05-01T09:49:43.746Z,25.37
2019-05-01T09:52:30.072Z,26.13
2019-05-01T09:55:12.266Z,23.87
2019-05-01T09:57:42.734Z,29.00
2019-05-01T10:00:20.232Z,25.00
2019-05-01T10:02:48.840Z,20.67
2019-05-01T10:05:28.414Z,19.67
2019-05-01T10:07:48.047Z,21.00
2019-05-01T10:10:17.245Z,19.90
2019-05-01T10:12:46.889Z,19.90
2019-05-01T10:15:16.504Z,24.03
2019-05-01T10:17:45.129Z,22.00
2019-05-01T10:20:13.815Z,14.27
2019-05-01T10:22:42.458Z,15.07
2019-05-01T10:25:12.441Z,17.40
2019-05-01T10:27:45.153Z,18.23
2019-05-01T10:30:20.308Z,18.00
2019-05-01T10:32:57.886Z,16.60
2019-05-01T10:35:42.635Z,16.00
2019-05-01T10:38:09.315Z,16.50
2019-05-01T10:40:35.947Z,18.70
2019-05-01T10:43:05.166Z,16.43
2019-05-01T10:45:33.797Z,17.40
2019-05-01T10:48:02.411Z,19.87
2019-05-01T10:50:31.078Z,17.43
2019-05-01T10:52:59.784Z,16.80
2019-05-01T10:55:28.710Z,13.93
2019-05-01T10:57:57.392Z,17.17
2019-05-01T11:00:26.175Z,19.20
2019-05-01T11:02:54.813Z,12.17
2019-05-01T11:05:23.423Z,15.10
2019-05-01T11:07:52.039Z,15.00
2019-05-01T11:10:20.743Z,12.73
2019-05-01T11:12:49.422Z,13.60
2019-05-01T11:15:18.212Z,16.53
2019-05-01T11:17:46.846Z,12.47
2019-05-01T11:20:15.729Z,15.93
2019-05-01T11:22:44.442Z,19.00
2019-05-01T11:25:15.458Z,15.70
2019-05-01T11:27:44.234Z,17.47
2019-05-01T11:30:13.187Z,16.97
2019-05-01T11:33:03.260Z,16.33
2019-05-01T11:35:51.006Z,14.30
2019-05-01T11:38:42.602Z,15.27
2019-05-01T11:41:21.471Z,12.93
2019-05-01T11:43:50.156Z,14.23
2019-05-01T11:46:18.786Z,12.67
2019-05-01T11:48:47.529Z,14.47
2019-05-01T11:51:16.228Z,13.47
2019-05-01T11:53:44.929Z,16.13
2019-05-01T11:56:13.595Z,15.07
2019-05-01T11:58:42.213Z,14.37
2019-05-01T12:01:12.579Z,13.37
2019-05-01T12:03:41.307Z,12.53
2019-05-01T12:06:22.340Z,15.33
2019-05-01T12:08:40.352Z,19.77
2019-05-01T12:11:10.537Z,13.33
2019-05-01T12:13:43.895Z,15.90
2019-05-01T12:16:31.262Z,15.77
2019-05-01T12:18:59.871Z,17.30
2019-05-01T12:21:28.522Z,14.33
2019-05-01T12:23:57.187Z,17.00
2019-05-01T12:26:25.814Z,15.50
2019-05-01T12:28:54.465Z,14.60
2019-05-01T12:31:23.088Z,12.97
2019-05-01T12:33:51.733Z,11.57
2019-05-01T12:36:20.416Z,13.77
2019-05-01T12:38:49.045Z,16.17
2019-05-01T12:41:26.004Z,14.30
2019-05-01T12:43:54.648Z,13.80
2019-05-01T12:46:41.798Z,12.83
2019-05-01T12:49:10.449Z,11.40
2019-05-01T12:51:40.328Z,13.67
2019-05-01T12:54:14.735Z,15.63
2019-05-01T12:56:48.719Z,11.83
2019-05-01T12:59:17.444Z,13.33
2019-05-01T13:01:46.153Z,14.13
2019-05-01T13:04:14.859Z,12.90
2019-05-01T13:06:49.461Z,10.40
2019-05-01T13:09:13.814Z,10.90
2019-05-01T13:11:42.502Z,10.90
2019-05-01T13:14:11.134Z,11.27
2019-05-01T13:16:40.542Z,10.00
2019-05-01T13:19:09.201Z,11.13
2019-05-01T13:21:37.883Z,10.80
2019-05-01T13:24:06.585Z,11.40
2019-05-01T13:26:40.668Z,10.80
2019-05-01T13:29:15.583Z,9.10
2019-05-01T13:32:02.110Z,10.70
2019-05-01T13:34:30.863Z,9.00
2019-05-01T13:37:03.175Z,9.87
2019-05-01T13:39:29.975Z,9.67
2019-05-01T13:41:58.657Z,13.43
2019-05-01T13:44:27.311Z,10.00
2019-05-01T13:46:55.924Z,12.77
2019-05-01T13:49:24.637Z,12.50
2019-05-01T13:51:53.359Z,12.27
2019-05-01T13:54:21.989Z,11.40
2019-05-01T13:56:50.666Z,21.23
2019-05-01T13:59:19.358Z,14.80
2019-05-01T14:01:48.019Z,8.20
2019-05-01T14:04:16.655Z,10.73
2019-05-01T14:06:45.374Z,9.73
2019-05-01T14:09:22.597Z,9.43
2019-05-01T14:11:51.236Z,9.80
2019-05-01T14:14:19.833Z,8.87
2019-05-01T14:16:48.491Z,8.70
2019-05-01T14:19:17.105Z,9.30
2019-05-01T14:22:02.990Z,9.80
2019-05-01T14:24:42.055Z,11.00
2019-05-01T14:27:12.255Z,7.70
2019-05-01T14:29:41.336Z,10.33
2019-05-01T14:32:11.911Z,14.20
2019-05-01T14:34:41.958Z,7.80
2019-05-01T14:37:15.042Z,7.50
2019-05-01T14:39:44.404Z,9.20
2019-05-01T14:42:16.069Z,8.07
2019-05-01T14:44:50.759Z,11.53
2019-05-01T14:47:21.213Z,13.00
2019-05-01T14:49:52.285Z,9.00
2019-05-01T14:52:24.204Z,10.40
2019-05-01T14:55:03.870Z,11.40
2019-05-01T14:57:43.719Z,11.73
2019-05-01T15:00:15.294Z,9.60
2019-05-01T15:02:44.841Z,13.33
2019-05-01T15:05:14.954Z,8.07
2019-05-01T15:07:49.804Z,7.90
2019-05-01T15:10:20.819Z,11.60
2019-05-01T15:12:55.564Z,8.67
2019-05-01T15:15:32.571Z,8.07
2019-05-01T15:18:26.129Z,8.13
2019-05-01T15:21:00.925Z,12.20
2019-05-01T15:23:30.926Z,10.10
2019-05-01T15:26:03.753Z,7.07
2019-05-01T15:29:01.946Z,10.60
2019-05-01T15:31:36.118Z,8.73
2019-05-01T15:34:07.250Z,10.80
2019-05-01T15:36:37.524Z,9.40
2019-05-01T15:39:13.985Z,8.17
2019-05-01T15:42:12.459Z,15.57
2019-05-01T15:44:47.777Z,9.17
2019-05-01T15:47:18.387Z,9.80
2019-05-01T15:49:48.527Z,6.90
2019-05-01T15:52:17.127Z,6.67
2019-05-01T15:54:45.732Z,10.40
2019-05-01T15:57:14.416Z,9.27
2019-05-01T15:59:43.150Z,8.20
2019-05-01T16:02:11.843Z,12.43
2019-05-01T16:04:40.462Z,7.60
2019-05-01T16:07:09.069Z,8.60
2019-05-01T16:09:37.748Z,8.00
2019-05-01T16:12:29.504Z,10.57
2019-05-01T16:14:58.111Z,7.43
2019-05-01T16:17:26.744Z,9.10
2019-05-01T16:19:55.357Z,11.30
2019-05-01T16:22:23.952Z,9.50
2019-05-01T16:24:52.579Z,9.33
2019-05-01T16:27:21.211Z,7.10
2019-05-01T16:29:49.890Z,12.73
2019-05-01T16:32:18.565Z,8.87
2019-05-01T16:34:47.254Z,8.03
2019-05-01T16:37:15.943Z,9.50
2019-05-01T16:40:02.240Z,8.53
2019-05-01T16:42:35.421Z,9.93
2019-05-01T16:45:05.887Z,9.53
2019-05-01T16:47:34.490Z,9.80
2019-05-01T16:50:03.314Z,12.33
2019-05-01T16:52:34.141Z,13.63
2019-05-01T16:55:02.880Z,6.97
2019-05-01T16:57:31.509Z,6.80
2019-05-01T17:00:00.120Z,16.93
2019-05-01T17:02:40.681Z,6.57
2019-05-01T17:05:20.363Z,9.73
2019-05-01T17:08:09.198Z,7.10
2019-05-01T17:10:39.449Z,8.53
2019-05-01T17:13:08.525Z,6.50
2019-05-01T17:15:41.351Z,9.43
2019-05-01T17:18:10.188Z,7.37
2019-05-01T17:20:38.896Z,8.63
2019-05-01T17:23:07.615Z,10.07
2019-05-01T17:25:36.419Z,6.20
2019-05-01T17:28:08.213Z,10.30
2019-05-01T17:30:40.632Z,8.33
2019-05-01T17:33:09.443Z,6.63
2019-05-01T17:35:41.682Z,7.67
2019-05-01T17:38:08.600Z,12.83
2019-05-01T17:40:37.430Z,6.77
2019-05-01T17:43:07.999Z,6.93
2019-05-01T17:45:36.807Z,7.10
2019-05-01T17:48:05.760Z,7.73
2019-05-01T17:50:34.452Z,6.10
2019-05-01T17:53:03.199Z,7.43
2019-05-01T17:55:34.283Z,7.30
2019-05-01T17:58:03.722Z,6.80
2019-05-01T18:00:51.718Z,8.33
2019-05-01T18:03:40.012Z,9.50
2019-05-01T18:06:16.142Z,7.93
2019-05-01T18:08:47.158Z,5.97
2019-05-01T18:11:21.202Z,6.07
2019-05-01T18:13:50.848Z,8.93
2019-05-01T18:16:20.993Z,7.37
2019-05-01T18:18:51.048Z,8.30
2019-05-01T18:21:20.177Z,8.30
2019-05-01T18:24:08.965Z,8.37
2019-05-01T18:27:04.732Z,7.67
2019-05-01T18:29:44.559Z,8.60
2019-05-01T18:32:20.874Z,7.77
2019-05-01T18:34:58.059Z,7.77
2019-05-01T18:37:36.429Z,8.43
2019-05-01T18:40:13.183Z,6.67
2019-05-01T18:42:46.524Z,9.00
2019-05-01T18:45:39.381Z,10.70
2019-05-01T18:48:08.604Z,6.47
2019-05-01T18:50:39.578Z,7.57
2019-05-01T18:53:13.881Z,6.37
2019-05-01T18:55:46.232Z,10.30
2019-05-01T18:58:15.332Z,7.67
2019-05-01T19:00:51.090Z,7.37
2019-05-01T19:03:22.693Z,6.00
2019-05-01T19:05:56.435Z,8.13
2019-05-01T19:08:30.492Z,8.43
2019-05-01T19:11:13.559Z,6.40
2019-05-01T19:13:46.499Z,6.63
2019-05-01T19:16:18.175Z,8.50
2019-05-01T19:18:58.058Z,8.10
2019-05-01T19:21:29.096Z,9.20
2019-05-01T19:24:00.661Z,8.10
2019-05-01T19:26:32.480Z,9.80
2019-05-01T19:29:01.361Z,7.83
2019-05-01T19:31:33.716Z,10.40
2019-05-01T19:34:05.544Z,8.70
2019-05-01T19:36:40.489Z,10.37
2019-05-01T19:39:11.784Z,9.67
2019-05-01T19:41:43.635Z,7.43
2019-05-01T19:44:26.105Z,10.77
2019-05-01T19:46:59.769Z,10.70
2019-05-01T19:49:32.149Z,8.23
2019-05-01T19:52:02.237Z,8.63
2019-05-01T19:54:33.251Z,9.50
2019-05-01T19:57:01.998Z,8.20
2019-05-01T19:59:32.878Z,11.27
2019-05-01T20:02:06.382Z,12.43
2019-05-01T20:04:39.705Z,8.70
2019-05-01T20:07:17.352Z,8.93
2019-05-01T20:09:56.666Z,8.23
2019-05-01T20:12:29.869Z,9.03
2019-05-01T20:15:19.886Z,10.83
2019-05-01T20:17:53.168Z,14.20
2019-05-01T20:20:23.108Z,10.17
2019-05-01T20:23:02.089Z,11.30
2019-05-01T20:25:33.779Z,9.80
2019-05-01T20:28:03.693Z,13.57
2019-05-01T20:30:33.545Z,10.90
2019-05-01T20:33:23.964Z,9.03
2019-05-01T20:36:00.456Z,7.83
2019-05-01T20:38:27.096Z,10.73
2019-05-01T20:40:57.702Z,11.00
2019-05-01T20:43:33.502Z,9.10
2019-05-01T20:46:10.376Z,10.27
2019-05-01T20:48:39.655Z,9.80
2019-05-01T20:51:11.469Z,11.83
2019-05-01T20:53:40.698Z,9.70
2019-05-01T20:56:17.186Z,9.97
2019-05-01T20:58:46.931Z,11.07
2019-05-01T21:01:16.751Z,11.73
2019-05-01T21:03:58.153Z,14.93
2019-05-01T21:06:30.980Z,13.83
2019-05-01T21:09:15.887Z,12.80
2019-05-01T21:11:48.767Z,15.77
2019-05-01T21:14:23.179Z,16.07
2019-05-01T21:16:54.536Z,11.80
2019-05-01T21:19:28.571Z,12.90
2019-05-01T21:21:57.830Z,16.90
2019-05-01T21:24:26.623Z,16.53
2019-05-01T21:27:03.559Z,20.70
2019-05-01T21:29:34.330Z,23.47
2019-05-01T21:32:07.974Z,15.93
2019-05-01T21:34:37.684Z,23.83
2019-05-01T21:37:06.713Z,22.63
2019-05-01T21:39:57.768Z,23.73
2019-05-01T21:42:32.642Z,30.10
2019-05-01T21:45:04.370Z,32.67
2019-05-01T21:47:38.711Z,37.33
2019-05-01T21:50:09.252Z,34.03
2019-05-01T21:52:40.098Z,33.30
2019-05-01T21:55:12.886Z,32.63
2019-05-01T21:57:49.977Z,29.90
2019-05-01T22:00:19.980Z,33.80
2019-05-01T22:02:50.073Z,28.13
2019-05-01T22:05:22.073Z,27.33
2019-05-01T22:07:53.082Z,30.10
2019-05-01T22:10:26.722Z,28.90
2019-05-01T22:12:54.778Z,29.10
2019-05-01T22:15:32.927Z,33.50
2019-05-01T22:18:14.734Z,33.57
2019-05-01T22:20:49.014Z,30.10
2019-05-01T22:23:23.253Z,32.00
2019-05-01T22:25:57.254Z,33.90
2019-05-01T22:28:33.328Z,39.93
2019-05-01T22:31:40.177Z,28.97
2019-05-01T22:34:25.187Z,30.80
2019-05-01T22:36:54.677Z,25.97
2019-05-01T22:39:28.884Z,28.23
2019-05-01T22:41:58.284Z,29.70
2019-05-01T22:44:30.236Z,29.10
2019-05-01T22:47:00.423Z,28.30
2019-05-01T22:49:29.105Z,26.10
2019-05-01T22:51:57.791Z,32.03
2019-05-01T22:54:26.417Z,29.97
2019-05-01T22:56:55.128Z,31.17
2019-05-01T22:59:23.742Z,34.50
2019-05-01T23:01:54.453Z,33.00
2019-05-01T23:04:23.055Z,35.37
2019-05-01T23:06:51.690Z,32.13
2019-05-01T23:09:23.422Z,32.00
2019-05-01T23:11:51.909Z,30.90
2019-05-01T23:14:22.245Z,33.00
2019-05-01T23:17:03.213Z,35.20
2019-05-01T23:19:29.676Z,34.40
2019-05-01T23:21:58.483Z,33.97
2019-05-01T23:24:27.107Z,32.27
2019-05-01T23:26:55.785Z,31.33
2019-05-01T23:29:24.465Z,31.30
2019-05-01T23:31:53.168Z,31.07
2019-05-01T23:34:26.317Z,31.00
2019-05-01T23:36:52.176Z,28.87
2019-05-01T23:39:20.837Z,27.80
2019-05-01T23:41:49.486Z,31.30
2019-05-01T23:44:18.131Z,32.70
2019-05-01T23:46:46.752Z,33.73
2019-05-01T23:49:15.390Z,30.13
2019-05-01T23:51:43.995Z,32.30
2019-05-01T23:54:12.629Z,30.60
2019-05-01T23:56:41.246Z,32.20
2019-05-01T23:59:09.968Z,29.50
